Time;durP1;ratioP1;P1;durP2;ratioP2;P2;SDS_P1;SDS_P2;PMS_P1;PMS_P2;Temp;Humidity;BMP_temperature;BMP_pressure;BME280_temperature;BME280_humidity;BME280_pressure;Samples;Min_cycle;Max_cycle;Signal;HPM_P1;HPM_P2
2023/07/09 00:00:48;;;;;;;5.20;2.90;;;;;;;20.21;58.09;100350.52;108052;1253;73583;-79
2023/07/09 00:03:15;;;;;;;6.50;3.20;;;;;;;20.22;58.02;100346.36;108094;1253;71830;-78
2023/07/09 00:05:42;;;;;;;5.70;3.10;;;;;;;20.22;58.05;100347.83;108125;1253;61955;-79
2023/07/09 00:08:28;;;;;;;8.70;2.80;;;;;;;20.23;58.08;100348.33;108187;1253;63119;-78
2023/07/09 00:10:55;;;;;;;4.80;3.00;;;;;;;20.24;58.18;100346.58;107986;1254;74893;-79
2023/07/09 00:13:23;;;;;;;4.70;2.90;;;;;;;20.26;58.17;100340.70;108105;1253;71107;-79
2023/07/09 00:15:50;;;;;;;5.90;3.30;;;;;;;20.26;58.12;100340.02;108087;1253;72759;-80
2023/07/09 00:18:16;;;;;;;6.10;3.20;;;;;;;20.27;58.32;100335.79;108041;1254;64987;-79
2023/07/09 00:20:43;;;;;;;4.40;3.10;;;;;;;20.26;58.26;100329.33;108304;1253;61169;-79
2023/07/09 00:23:13;;;;;;;5.50;3.20;;;;;;;20.26;58.31;100332.66;108131;1253;74557;-78
2023/07/09 00:25:43;;;;;;;4.30;3.10;;;;;;;20.27;58.52;100333.77;108128;1254;73205;-78
2023/07/09 00:28:17;;;;;;;5.90;3.10;;;;;;;20.28;58.47;100336.13;108129;1253;72610;-79
2023/07/09 00:30:45;;;;;;;5.40;3.10;;;;;;;20.27;58.60;100334.63;108119;1253;63236;-79
2023/07/09 00:33:15;;;;;;;5.80;3.10;;;;;;;20.26;58.44;100334.06;108124;1253;61149;-79
2023/07/09 00:35:42;;;;;;;6.30;2.90;;;;;;;20.27;58.62;100328.89;108163;1253;74729;-79
2023/07/09 00:38:21;;;;;;;5.80;3.10;;;;;;;20.27;58.65;100331.59;108204;1253;72881;-79
2023/07/09 00:41:05;;;;;;;5.10;2.60;;;;;;;20.26;58.76;100331.33;108065;1253;71295;-78
2023/07/09 00:43:36;;;;;;;8.70;3.10;;;;;;;20.25;58.86;100329.76;108066;1254;61278;-79
2023/07/09 00:46:27;;;;;;;5.40;3.00;;;;;;;20.24;59.00;100332.27;108161;1253;61208;-79
2023/07/09 00:49:05;;;;;;;5.90;3.30;;;;;;;20.24;58.75;100334.91;108076;1253;76820;-79
2023/07/09 00:51:33;;;;;;;5.20;3.30;;;;;;;20.22;58.82;100330.80;108316;1253;73433;-79
2023/07/09 00:54:08;;;;;;;6.60;3.10;;;;;;;20.21;58.83;100330.52;107956;1254;72219;-78
2023/07/09 00:56:38;;;;;;;6.00;3.10;;;;;;;20.20;58.94;100331.77;108067;1253;61154;-78
2023/07/09 00:59:05;;;;;;;5.90;3.00;;;;;;;20.18;59.02;100333.50;108128;1253;61608;-78
2023/07/09 01:01:33;;;;;;;5.20;3.20;;;;;;;20.16;59.31;100328.30;108106;1253;77972;-78
2023/07/09 01:04:00;;;;;;;7.00;3.30;;;;;;;20.14;59.42;100327.61;107870;1253;76504;-79
2023/07/09 01:06:46;;;;;;;6.20;3.10;;;;;;;20.14;59.53;100330.94;107859;1253;73295;-78
2023/07/09 01:09:13;;;;;;;4.90;3.00;;;;;;;20.13;59.70;100330.64;108111;1253;61395;-79
2023/07/09 01:11:40;;;;;;;5.70;3.10;;;;;;;20.12;59.67;100332.32;108175;1253;62280;-79
2023/07/09 01:14:08;;;;;;;6.70;3.60;;;;;;;20.12;59.75;100331.86;108113;1253;73922;-79
2023/07/09 01:16:45;;;;;;;8.20;3.20;;;;;;;20.12;59.82;100330.47;108119;1253;74297;-79
2023/07/09 01:19:16;;;;;;;8.20;3.30;;;;;;;20.11;59.88;100327.98;107918;1254;70440;-78
2023/07/09 01:21:42;;;;;;;5.70;3.10;;;;;;;20.12;59.84;100326.90;108105;1254;61139;-80
2023/07/09 01:24:14;;;;;;;5.50;3.20;;;;;;;20.12;59.90;100328.67;107959;1254;61237;-79
2023/07/09 01:26:40;;;;;;;5.50;2.90;;;;;;;20.12;59.84;100332.25;108071;1253;74664;-78
2023/07/09 01:29:07;;;;;;;4.50;2.80;;;;;;;20.11;59.87;100334.02;108137;1257;71615;-79
2023/07/09 01:31:35;;;;;;;5.40;3.30;;;;;;;20.10;60.12;100328.63;108177;1253;61156;-78
2023/07/09 01:34:03;;;;;;;5.20;2.90;;;;;;;20.10;60.04;100330.85;108150;1253;61165;-79
2023/07/09 01:36:31;;;;;;;8.20;3.40;;;;;;;20.07;60.15;100330.14;108152;1253;60206;-79
2023/07/09 01:38:57;;;;;;;6.30;2.90;;;;;;;20.07;60.23;100334.44;108102;1253;78432;-78
2023/07/09 01:41:24;;;;;;;6.70;3.20;;;;;;;20.06;60.41;100335.81;108233;1253;73084;-78
2023/07/09 01:43:51;;;;;;;5.50;3.50;;;;;;;20.06;60.34;100339.13;108094;1253;72601;-79
2023/07/09 01:46:19;;;;;;;6.30;3.60;;;;;;;20.06;60.39;100338.11;108138;1253;61162;-78
2023/07/09 01:48:45;;;;;;;6.50;3.70;;;;;;;20.06;60.32;100340.98;108183;1253;61142;-78
2023/07/09 01:51:16;;;;;;;6.00;3.30;;;;;;;20.06;60.17;100346.09;108255;1253;74348;-79
2023/07/09 01:53:44;;;;;;;4.90;3.20;;;;;;;20.05;60.31;100347.21;108136;1253;73022;-79
2023/07/09 01:56:10;;;;;;;7.20;3.30;;;;;;;20.04;60.33;100348.20;108078;1253;76174;-79
2023/07/09 01:58:41;;;;;;;6.40;3.20;;;;;;;20.04;60.32;100350.91;108095;1253;61674;-77
2023/07/09 02:01:12;;;;;;;4.80;3.20;;;;;;;20.04;60.47;100348.36;108224;1253;61123;-77
2023/07/09 02:03:40;;;;;;;5.40;3.10;;;;;;;20.05;60.55;100350.09;108207;1253;74453;-78
2023/07/09 02:06:09;;;;;;;7.60;3.70;;;;;;;20.06;60.54;100351.15;108219;1253;71733;-78
2023/07/09 02:08:37;;;;;;;6.80;3.50;;;;;;;20.07;60.70;100352.75;108032;1253;71639;-78
2023/07/09 02:11:06;;;;;;;6.80;3.60;;;;;;;20.09;60.59;100349.04;108135;1253;60678;-79
2023/07/09 02:13:33;;;;;;;7.50;3.30;;;;;;;20.10;60.38;100352.48;108132;1253;61134;-79
2023/07/09 02:16:00;;;;;;;6.20;3.30;;;;;;;20.11;60.51;100354.62;108119;1253;73970;-79
2023/07/09 02:18:29;;;;;;;6.00;3.40;;;;;;;20.12;60.35;100358.21;108093;1253;72528;-79
2023/07/09 02:20:56;;;;;;;6.90;3.10;;;;;;;20.13;60.19;100360.41;108171;1253;73133;-79
2023/07/09 02:23:27;;;;;;;5.70;3.10;;;;;;;20.12;60.11;100359.67;108176;1253;61757;-79
2023/07/09 02:25:54;;;;;;;6.20;3.20;;;;;;;20.10;60.05;100361.27;108164;1253;61141;-79
2023/07/09 02:28:21;;;;;;;6.80;3.00;;;;;;;20.10;60.06;100360.85;108169;1253;73583;-79
2023/07/09 02:30:48;;;;;;;5.20;3.50;;;;;;;20.11;59.98;100364.35;108118;1253;72602;-79
2023/07/09 02:33:15;;;;;;;4.60;3.00;;;;;;;20.10;59.93;100367.89;108039;1253;70224;-79
2023/07/09 02:35:42;;;;;;;5.80;3.10;;;;;;;20.10;59.82;100374.17;108168;1253;61740;-79
2023/07/09 02:38:09;;;;;;;6.20;3.10;;;;;;;20.11;59.81;100370.96;108157;1253;61158;-79
2023/07/09 02:40:36;;;;;;;4.30;2.60;;;;;;;20.10;59.87;100364.04;108130;1253;74503;-78
2023/07/09 02:43:03;;;;;;;5.00;3.20;;;;;;;20.10;59.66;100366.42;108113;1253;72786;-79
2023/07/09 02:45:33;;;;;;;7.00;3.30;;;;;;;20.11;59.62;100368.02;108124;1253;75572;-79
2023/07/09 02:48:00;;;;;;;7.60;3.20;;;;;;;20.13;59.72;100368.86;107965;1256;61004;-78
2023/07/09 02:50:29;;;;;;;5.70;3.00;;;;;;;20.14;59.67;100366.73;108082;1253;61512;-79
2023/07/09 02:52:56;;;;;;;7.20;3.00;;;;;;;20.15;59.42;100367.65;108140;1253;73713;-78
2023/07/09 02:55:24;;;;;;;7.20;3.50;;;;;;;20.17;59.47;100368.73;108176;1254;72798;-79
2023/07/09 02:57:51;;;;;;;6.40;2.80;;;;;;;20.18;59.17;100362.38;108076;1253;72530;-79
2023/07/09 03:00:52;;;;;;;6.50;3.10;;;;;;;20.19;59.05;100361.98;108116;1254;62032;-77
2023/07/09 03:03:20;;;;;;;9.00;3.30;;;;;;;20.21;58.85;100360.35;108157;1253;60447;-79
2023/07/09 03:05:48;;;;;;;5.70;3.10;;;;;;;20.22;58.82;100362.73;108176;1254;75372;-78
2023/07/09 03:08:15;;;;;;;4.50;2.50;;;;;;;20.25;58.54;100361.35;108102;1253;72711;-78
2023/07/09 03:10:42;;;;;;;5.00;3.10;;;;;;;20.25;58.42;100363.45;108088;1259;72453;-78
2023/07/09 03:13:10;;;;;;;6.00;3.00;;;;;;;20.26;58.56;100360.22;108022;1253;61769;-78
2023/07/09 03:15:38;;;;;;;4.40;3.00;;;;;;;20.26;58.43;100360.31;108158;1254;61090;-77
2023/07/09 03:18:05;;;;;;;4.40;2.90;;;;;;;20.27;58.38;100359.96;108283;1253;74581;-78
2023/07/09 03:20:32;;;;;;;5.60;3.00;;;;;;;20.28;58.30;100358.40;108185;1253;72724;-79
2023/07/09 03:22:59;;;;;;;5.40;2.90;;;;;;;20.29;58.28;100358.64;108113;1253;72453;-78
2023/07/09 03:25:26;;;;;;;5.80;2.90;;;;;;;20.29;58.37;100361.90;108071;1253;61909;-79
2023/07/09 03:27:53;;;;;;;6.00;3.40;;;;;;;20.30;58.24;100363.00;108258;1253;61114;-78
2023/07/09 03:30:20;;;;;;;6.80;3.00;;;;;;;20.31;58.09;100361.99;108140;1253;74676;-79
2023/07/09 03:32:48;;;;;;;7.50;3.20;;;;;;;20.32;57.82;100360.63;108172;1253;72642;-78
2023/07/09 03:35:15;;;;;;;5.50;3.30;;;;;;;20.32;57.86;100358.55;108153;1253;71149;-79
2023/07/09 03:37:43;;;;;;;5.20;2.90;;;;;;;20.32;57.75;100362.33;108186;1253;60609;-78
2023/07/09 03:40:10;;;;;;;6.70;3.10;;;;;;;20.32;57.77;100359.70;108191;1253;61112;-78
2023/07/09 03:42:37;;;;;;;3.90;2.60;;;;;;;20.33;57.77;100359.67;108194;1253;74986;-78
2023/07/09 03:45:04;;;;;;;4.70;2.80;;;;;;;20.34;57.59;100363.05;108113;1253;72501;-77
2023/07/09 03:47:31;;;;;;;5.10;3.00;;;;;;;20.35;57.61;100358.83;108369;1253;71121;-78
2023/07/09 03:49:59;;;;;;;4.40;2.80;;;;;;;20.37;57.56;100358.05;108098;1253;61279;-79
2023/07/09 03:52:26;;;;;;;4.60;3.20;;;;;;;20.40;57.65;100355.44;108401;1253;60229;-80
2023/07/09 03:54:53;;;;;;;5.60;3.20;;;;;;;20.41;57.55;100362.61;108461;1253;73394;-79
2023/07/09 03:57:21;;;;;;;5.00;2.80;;;;;;;20.42;57.50;100364.80;108427;1253;70181;-76
2023/07/09 03:59:48;;;;;;;4.70;2.80;;;;;;;20.44;57.60;100357.99;108531;1257;71207;-76
2023/07/09 04:02:14;;;;;;;5.00;2.60;;;;;;;20.46;57.50;100361.77;108362;1256;61128;-76
2023/07/09 04:04:42;;;;;;;5.70;3.00;;;;;;;20.47;57.22;100363.69;108206;1253;61118;-79
2023/07/09 04:07:09;;;;;;;5.60;3.10;;;;;;;20.50;57.47;100363.20;108219;1253;74721;-78
2023/07/09 04:09:37;;;;;;;5.00;2.90;;;;;;;20.55;57.39;100366.66;108138;1253;72433;-79
2023/07/09 04:12:06;;;;;;;4.20;2.90;;;;;;;20.59;57.11;100365.05;108187;1257;72672;-79
2023/07/09 04:14:33;;;;;;;5.00;3.50;;;;;;;20.62;57.35;100368.64;108149;1253;61824;-79
2023/07/09 04:17:01;;;;;;;5.70;3.00;;;;;;;20.64;56.98;100370.59;108046;1254;61885;-78
2023/07/09 04:19:28;;;;;;;4.80;2.60;;;;;;;20.68;56.87;100370.67;108133;1253;74641;-79
2023/07/09 04:21:55;;;;;;;5.20;2.90;;;;;;;20.72;56.80;100371.42;108243;1254;72505;-79
2023/07/09 04:24:22;;;;;;;4.90;3.00;;;;;;;20.74;56.64;100366.17;108092;1253;72758;-79
2023/07/09 04:26:49;;;;;;;6.00;2.80;;;;;;;20.77;56.68;100368.82;108041;1253;61794;-79
2023/07/09 04:29:15;;;;;;;5.50;3.10;;;;;;;20.80;56.63;100367.71;108180;1253;61134;-79
2023/07/09 04:31:43;;;;;;;4.30;3.10;;;;;;;20.84;56.73;100366.16;108164;1254;74728;-79
2023/07/09 04:34:10;;;;;;;4.80;2.90;;;;;;;20.87;56.51;100368.19;108113;1253;72653;-79
2023/07/09 04:36:38;;;;;;;5.00;2.90;;;;;;;20.89;56.65;100365.39;108197;1253;72709;-81
2023/07/09 04:39:04;;;;;;;6.00;3.20;;;;;;;20.90;56.59;100365.08;108210;1253;61076;-78
2023/07/09 04:41:33;;;;;;;6.20;3.20;;;;;;;20.90;56.54;100369.16;108249;1253;61074;-79
2023/07/09 04:44:00;;;;;;;5.00;3.00;;;;;;;20.91;56.34;100365.63;108171;1256;74476;-79
2023/07/09 04:46:28;;;;;;;4.80;2.90;;;;;;;20.93;56.60;100373.64;108198;1253;72806;-79
2023/07/09 04:48:55;;;;;;;5.90;3.20;;;;;;;20.95;56.69;100373.17;108258;1253;73007;-79
2023/07/09 04:51:22;;;;;;;8.00;3.10;;;;;;;20.98;56.57;100375.05;108224;1257;61103;-78
2023/07/09 04:53:51;;;;;;;4.60;3.00;;;;;;;21.00;56.41;100372.31;108201;1253;61131;-78
2023/07/09 04:56:18;;;;;;;4.00;2.80;;;;;;;21.01;56.62;100376.48;108239;1253;74519;-77
2023/07/09 04:58:45;;;;;;;5.00;3.20;;;;;;;21.04;56.21;100377.13;108234;1253;71176;-78
2023/07/09 05:01:12;;;;;;;6.30;3.20;;;;;;;21.06;55.97;100378.14;108181;1253;72483;-78
2023/07/09 05:03:39;;;;;;;5.70;3.10;;;;;;;21.09;56.05;100378.23;108168;1253;61138;-79
2023/07/09 05:06:06;;;;;;;5.70;3.20;;;;;;;21.12;55.89;100383.17;108188;1253;60655;-78
2023/07/09 05:08:33;;;;;;;4.80;3.00;;;;;;;21.13;55.79;100372.33;108107;1254;74532;-79
2023/07/09 05:11:00;;;;;;;6.90;3.30;;;;;;;21.14;55.91;100377.40;108219;1253;73294;-79
2023/07/09 05:13:28;;;;;;;5.40;3.00;;;;;;;21.15;55.71;100375.51;108180;1253;72354;-79
2023/07/09 05:15:55;;;;;;;5.00;3.00;;;;;;;21.13;55.67;100375.15;108130;1253;62423;-79
2023/07/09 05:18:23;;;;;;;5.30;3.20;;;;;;;21.13;55.63;100378.02;108135;1253;61158;-78
2023/07/09 05:20:52;;;;;;;6.00;3.00;;;;;;;21.15;55.57;100375.90;108229;1253;74469;-79
2023/07/09 05:23:32;;;;;;;5.00;3.20;;;;;;;21.21;55.62;100374.50;108190;1254;72710;-78
2023/07/09 05:26:14;;;;;;;5.00;3.10;;;;;;;21.31;55.13;100382.63;108192;1256;73203;-78
2023/07/09 05:28:41;;;;;;;5.40;3.10;;;;;;;21.38;54.73;100378.23;108182;1258;61112;-79
2023/07/09 05:31:09;;;;;;;8.30;3.50;;;;;;;21.46;54.49;100378.14;108146;1253;60168;-79
2023/07/09 05:33:40;;;;;;;6.00;3.50;;;;;;;21.55;54.14;100376.96;108188;1253;74630;-79
2023/07/09 05:36:44;;;;;;;5.90;3.40;;;;;;;21.60;53.69;100378.09;108178;1253;75038;-78
2023/07/09 05:39:11;;;;;;;5.40;3.40;;;;;;;21.67;53.62;100372.27;108207;1253;72806;-79
2023/07/09 05:41:40;;;;;;;7.10;3.10;;;;;;;21.71;52.94;100374.73;108190;1254;61096;-78
2023/07/09 05:44:07;;;;;;;6.40;3.70;;;;;;;21.77;52.36;100375.16;108144;1254;59261;-78
2023/07/09 05:46:36;;;;;;;7.10;3.80;;;;;;;21.86;52.33;100379.41;108085;1257;73665;-78
2023/07/09 05:49:04;;;;;;;5.90;3.60;;;;;;;21.92;51.43;100381.33;108241;1253;71596;-78
2023/07/09 05:51:31;;;;;;;5.60;3.40;;;;;;;22.01;51.45;100382.32;108106;1253;72715;-78
2023/07/09 05:53:58;;;;;;;7.70;3.80;;;;;;;22.11;51.28;100385.38;108063;1253;61235;-78
2023/07/09 05:56:25;;;;;;;7.20;3.30;;;;;;;22.22;50.77;100382.29;108169;1256;61139;-78
2023/07/09 05:58:52;;;;;;;6.10;3.30;;;;;;;22.33;50.61;100378.19;108060;1255;74688;-78
2023/07/09 06:01:20;;;;;;;5.30;3.40;;;;;;;22.46;50.20;100376.81;108162;1253;72737;-79
2023/07/09 06:03:48;;;;;;;6.60;3.60;;;;;;;22.56;49.25;100376.67;108132;1253;72533;-78
2023/07/09 06:06:18;;;;;;;6.60;3.50;;;;;;;22.63;48.92;100375.39;108062;1253;61251;-79
2023/07/09 06:08:46;;;;;;;7.60;3.80;;;;;;;22.70;48.73;100378.81;108213;1254;61345;-82
2023/07/09 06:11:14;;;;;;;5.50;3.20;;;;;;;22.78;48.21;100375.91;108134;1253;74603;-82
2023/07/09 06:13:45;;;;;;;6.70;3.30;;;;;;;22.85;48.10;100377.52;107950;1254;72637;-82
2023/07/09 06:16:12;;;;;;;6.50;3.50;;;;;;;22.91;47.68;100381.27;108123;1254;72713;-81
2023/07/09 06:18:40;;;;;;;6.10;3.30;;;;;;;22.97;47.86;100381.70;108112;1254;61146;-81
2023/07/09 06:21:12;;;;;;;5.10;3.10;;;;;;;23.04;47.37;100377.31;108236;1253;61204;-81
2023/07/09 06:23:39;;;;;;;5.50;3.00;;;;;;;23.13;47.43;100378.20;108188;1253;73252;-80
2023/07/09 06:26:06;;;;;;;5.90;2.80;;;;;;;23.23;47.02;100378.55;108192;1253;72560;-81
2023/07/09 06:28:33;;;;;;;4.10;2.70;;;;;;;23.32;45.95;100377.02;108203;1253;72664;-81
2023/07/09 06:31:00;;;;;;;5.20;2.40;;;;;;;23.42;46.14;100369.50;108086;1254;61270;-81
2023/07/09 06:33:28;;;;;;;5.20;2.10;;;;;;;23.53;45.88;100374.86;107961;1256;61327;-82
2023/07/09 06:35:59;;;;;;;5.10;2.20;;;;;;;23.64;44.81;100378.66;108132;1253;73295;-79
2023/07/09 06:38:27;;;;;;;4.00;2.10;;;;;;;23.74;43.83;100369.67;108087;1258;71350;-79
2023/07/09 06:40:58;;;;;;;4.20;2.10;;;;;;;23.83;43.68;100370.94;108131;1253;71360;-78
2023/07/09 06:43:26;;;;;;;7.40;2.40;;;;;;;23.94;43.58;100372.07;108196;1253;61153;-77
2023/07/09 06:45:57;;;;;;;3.80;2.00;;;;;;;24.06;43.05;100362.54;108302;1253;61221;-77
2023/07/09 06:48:25;;;;;;;;;;;;;;;24.19;42.59;100358.94;108317;1253;75019;-78
2023/07/09 06:50:56;;;;;;;4.60;2.40;;;;;;;24.25;41.74;100362.98;108226;1254;71285;-78
2023/07/09 06:53:24;;;;;;;7.00;2.00;;;;;;;24.30;41.16;100364.90;108256;1254;73231;-78
2023/07/09 06:55:58;;;;;;;3.30;2.00;;;;;;;24.35;40.96;100360.18;108286;1253;61163;-77
2023/07/09 06:58:31;;;;;;;4.10;1.90;;;;;;;24.42;41.29;100360.35;108252;1254;61129;-79
2023/07/09 07:01:01;;;;;;;4.00;2.00;;;;;;;24.49;40.84;100356.09;108183;1253;73806;-77
2023/07/09 07:03:32;;;;;;;3.60;2.10;;;;;;;24.59;41.22;100350.14;108193;1253;72881;-77
2023/07/09 07:06:00;;;;;;;4.80;2.10;;;;;;;24.69;40.22;100357.60;108065;1257;72533;-78
2023/07/09 07:08:30;;;;;;;3.70;2.10;;;;;;;24.75;39.87;100351.48;108040;1253;60420;-78
2023/07/09 07:11:02;;;;;;;2.70;1.60;;;;;;;24.80;39.35;100358.70;108267;1257;61326;-78
2023/07/09 07:13:36;;;;;;;3.80;1.80;;;;;;;24.83;39.27;100353.61;108262;1253;74551;-77
2023/07/09 07:16:07;;;;;;;4.00;1.80;;;;;;;24.90;39.42;100357.05;108231;1253;72683;-77
2023/07/09 07:18:35;;;;;;;5.20;1.80;;;;;;;24.97;38.74;100364.67;108158;1253;72570;-76
2023/07/09 07:21:02;;;;;;;3.00;1.70;;;;;;;25.01;38.38;100358.12;108222;1254;59363;-77
2023/07/09 07:23:30;;;;;;;4.90;1.80;;;;;;;25.04;38.22;100353.41;108185;1253;61135;-77
2023/07/09 07:25:57;;;;;;;4.10;1.70;;;;;;;25.06;37.84;100358.23;108149;1254;74647;-78
2023/07/09 07:28:25;;;;;;;3.10;1.60;;;;;;;25.12;37.84;100356.88;107848;1261;72741;-78
2023/07/09 07:31:02;;;;;;;3.10;1.70;;;;;;;25.17;37.78;100356.08;108247;1253;71212;-78
2023/07/09 07:33:32;;;;;;;3.90;1.90;;;;;;;25.23;38.20;100358.52;108126;1256;59359;-77
2023/07/09 07:35:59;;;;;;;1.90;1.20;;;;;;;25.30;37.53;100360.66;108074;1253;61119;-78
2023/07/09 07:38:30;;;;;;;4.30;1.80;;;;;;;25.33;36.86;100357.53;108273;1253;74500;-78
2023/07/09 07:40:56;;;;;;;3.10;1.70;;;;;;;25.39;37.10;100350.14;108106;1253;72434;-78
2023/07/09 07:43:23;;;;;;;3.70;1.60;;;;;;;25.45;36.26;100354.40;108261;1253;72579;-78
2023/07/09 07:45:50;;;;;;;3.10;1.40;;;;;;;25.47;35.89;100356.64;108237;1253;61091;-78
2023/07/09 07:48:18;;;;;;;3.70;1.40;;;;;;;25.53;36.04;100351.35;108337;1253;61275;-78
2023/07/09 07:50:46;;;;;;;2.70;1.40;;;;;;;25.58;35.89;100350.86;108252;1253;74688;-77
2023/07/09 07:53:18;;;;;;;3.00;1.50;;;;;;;25.62;35.95;100348.30;108231;1253;72723;-78
2023/07/09 07:55:47;;;;;;;3.20;1.60;;;;;;;25.69;35.49;100344.44;108242;1254;74031;-77
2023/07/09 07:58:14;;;;;;;2.80;1.50;;;;;;;25.80;35.29;100342.28;108218;1253;61443;-78
2023/07/09 08:00:43;;;;;;;3.60;1.40;;;;;;;25.90;36.07;100340.59;108244;1254;61445;-79
2023/07/09 08:03:11;;;;;;;3.70;1.60;;;;;;;26.02;35.61;100334.84;108262;1253;74536;-78
2023/07/09 08:05:40;;;;;;;3.10;1.50;;;;;;;26.11;35.49;100338.11;108250;1257;72638;-78
2023/07/09 08:08:21;;;;;;;2.40;1.30;;;;;;;26.20;35.32;100333.08;108266;1253;72559;-78
2023/07/09 08:11:09;;;;;;;2.80;1.50;;;;;;;26.35;36.03;100330.25;108140;1253;61632;-78
2023/07/09 08:13:37;;;;;;;5.50;2.00;;;;;;;26.50;35.24;100337.05;108250;1253;61128;-78
2023/07/09 08:16:05;;;;;;;2.80;1.60;;;;;;;26.58;36.82;100334.84;108304;1253;73230;-77
2023/07/09 08:18:33;;;;;;;4.10;1.90;;;;;;;26.61;37.42;100327.98;108261;1254;72804;-76
2023/07/09 08:21:00;;;;;;;6.20;2.10;;;;;;;26.65;37.49;100334.84;108318;1253;72915;-79
2023/07/09 08:23:29;;;;;;;4.30;1.70;;;;;;;26.64;37.08;100330.45;108267;1254;61135;-78
2023/07/09 08:25:57;;;;;;;3.40;1.70;;;;;;;26.58;35.70;100341.32;108275;1253;61349;-78
2023/07/09 08:28:26;;;;;;;2.50;1.60;;;;;;;26.55;35.27;100333.53;108160;1253;74523;-78
2023/07/09 08:30:53;;;;;;;3.80;1.50;;;;;;;26.52;34.21;100334.52;108268;1254;72586;-78
2023/07/09 08:33:20;;;;;;;5.50;1.70;;;;;;;26.55;34.91;100334.63;108284;1253;73131;-79
2023/07/09 08:35:51;;;;;;;5.20;2.10;;;;;;;26.64;37.20;100335.69;108174;1253;61010;-78
2023/07/09 08:38:19;;;;;;;3.70;2.00;;;;;;;26.76;37.64;100334.60;108211;1257;61218;-77
2023/07/09 08:41:28;;;;;;;5.70;2.00;;;;;;;26.85;37.34;100333.70;108193;1256;74677;-79
2023/07/09 08:44:09;;;;;;;3.50;1.80;;;;;;;26.96;37.24;100327.39;108119;1256;72670;-77
2023/07/09 08:47:16;;;;;;;3.20;1.90;;;;;;;27.00;37.06;100331.36;108090;1255;72624;-77
2023/07/09 08:49:57;;;;;;;5.30;2.00;;;;;;;27.08;37.21;100325.50;108171;1255;61330;-79
2023/07/09 08:52:31;;;;;;;4.70;1.90;;;;;;;27.14;37.41;100326.77;107982;1254;60217;-78
2023/07/09 08:55:08;;;;;;;4.30;1.80;;;;;;;27.23;36.74;100326.08;108133;1257;74650;-79
2023/07/09 08:57:40;;;;;;;3.90;1.90;;;;;;;27.32;37.10;100323.75;108397;1256;72063;-78
2023/07/09 09:00:27;;;;;;;5.30;2.00;;;;;;;27.51;37.20;100326.05;107998;1254;73164;-79
2023/07/09 09:02:59;;;;;;;5.20;1.80;;;;;;;27.70;36.12;100321.83;108209;1253;61253;-78
2023/07/09 09:05:28;;;;;;;3.90;1.90;;;;;;;27.81;36.04;100326.50;108186;1253;61280;-79
2023/07/09 09:08:02;;;;;;;3.10;1.80;;;;;;;27.86;36.31;100330.00;107984;1253;75252;-79
2023/07/09 09:10:44;;;;;;;3.40;1.90;;;;;;;27.88;36.45;100329.08;108054;1254;72776;-78
2023/07/09 09:13:15;;;;;;;3.70;1.80;;;;;;;27.87;35.58;100333.15;108257;1256;64101;-77
2023/07/09 09:15:45;;;;;;;4.30;1.90;;;;;;;27.79;34.91;100334.41;108268;1253;61337;-78
2023/07/09 09:18:21;;;;;;;3.30;1.80;;;;;;;27.69;35.06;100329.04;108270;1254;61109;-79
2023/07/09 09:21:07;;;;;;;3.40;1.70;;;;;;;27.70;35.71;100330.54;108254;1253;74722;-78
2023/07/09 09:23:52;;;;;;;4.30;1.80;;;;;;;27.79;35.15;100336.38;107971;1254;71668;-78
2023/07/09 09:26:39;;;;;;;5.20;1.80;;;;;;;27.84;35.00;100329.20;108290;1253;63923;-79
2023/07/09 09:29:14;;;;;;;4.90;1.70;;;;;;;27.81;35.42;100329.96;108274;1253;61091;-78
2023/07/09 09:31:42;;;;;;;3.70;1.70;;;;;;;27.74;35.13;100334.27;108185;1253;61109;-78
2023/07/09 09:34:30;;;;;;;4.60;1.80;;;;;;;27.72;35.24;100327.73;108289;1253;74632;-79
2023/07/09 09:36:58;;;;;;;3.60;1.40;;;;;;;27.74;34.77;100327.83;108254;1253;72924;-78
2023/07/09 09:39:26;;;;;;;6.20;1.80;;;;;;;27.67;34.26;100334.36;108262;1253;63795;-78
2023/07/09 09:41:55;;;;;;;3.30;1.70;;;;;;;27.59;34.34;100332.64;108289;1254;60484;-79
2023/07/09 09:44:26;;;;;;;3.40;1.70;;;;;;;27.55;34.56;100327.58;108283;1254;60071;-76
2023/07/09 09:46:55;;;;;;;;;;;;;;;27.53;34.67;100328.97;108278;1254;74039;-77
2023/07/09 09:49:26;;;;;;;2.70;1.70;;;;;;;27.53;34.14;100336.11;108220;1253;72721;-77
2023/07/09 09:51:56;;;;;;;4.00;1.60;;;;;;;27.54;34.06;100330.47;108239;1254;72307;-77
2023/07/09 09:54:27;;;;;;;;;;;;;;;27.60;34.32;100331.71;108194;1253;61390;-76
2023/07/09 09:56:54;;;;;;;;;;;;;;;27.68;33.52;100326.38;108237;1253;61671;-76
2023/07/09 09:59:24;;;;;;;;;;;;;;;27.80;33.73;100325.09;108157;1254;74766;-77
2023/07/09 10:01:58;;;;;;;;;;;;;;;27.88;31.75;100333.23;108183;1253;72539;-78
2023/07/09 10:04:25;;;;;;;;;;;;;;;27.88;30.61;100327.27;108240;1253;62684;-77
2023/07/09 10:06:54;;;;;;;;;;;;;;;27.91;31.10;100325.02;108261;1254;61250;-77
2023/07/09 10:09:25;;;;;;;;;;;;;;;28.02;30.70;100327.85;108238;1254;61104;-76
2023/07/09 10:11:58;;;;;;;;;;;;;;;28.12;31.32;100322.27;108242;1253;74716;-76
2023/07/09 10:14:34;;;;;;;;;;;;;;;28.23;31.10;100325.17;108233;1253;72332;-76
2023/07/09 10:17:05;;;;;;;;;;;;;;;28.31;31.22;100326.79;108255;1253;72568;-75
2023/07/09 10:19:36;;;;;;;;;;;;;;;28.36;31.28;100323.14;108057;1254;60391;-76
2023/07/09 10:22:05;;;;;;;;;;;;;;;28.44;31.78;100327.45;108254;1253;61209;-77
2023/07/09 10:24:52;;;;;;;;;;;;;;;28.44;31.07;100330.82;108222;1257;65405;-76
2023/07/09 10:27:57;;;;;;;;;;;;;;;28.36;30.41;100326.58;108314;1254;71920;-77
2023/07/09 10:30:33;;;;;;;;;;;;;;;28.38;30.94;100319.92;107708;1259;71192;-76
2023/07/09 10:33:00;;;;;;;;;;;;;;;28.44;31.56;100323.52;107692;1259;61226;-76
2023/07/09 10:35:30;;;;;;;;;;;;;;;28.44;31.95;100324.79;108023;1254;61161;-77
2023/07/09 10:38:16;;;;;;;;;;;;;;;28.39;31.29;100322.77;108224;1254;64698;-77
2023/07/09 10:40:49;;;;;;;;;;;;;;;28.41;31.32;100324.45;108245;1257;63923;-77
2023/07/09 10:43:18;;;;;;;;;;;;;;;28.49;31.37;100325.90;108152;1253;71241;-76
2023/07/09 10:45:48;;;;;;;;;;;;;;;28.50;31.73;100332.98;108272;1254;61202;-77
2023/07/09 10:48:17;;;;;;;;;;;;;;;28.43;31.91;100328.54;108329;1253;61088;-75
2023/07/09 10:50:46;;;;;;;;;;;;;;;28.32;32.23;100322.64;108321;1254;74708;-76
2023/07/09 10:53:14;;;;;;;;;;;;;;;28.32;32.68;100317.85;108342;1256;62942;-75
2023/07/09 10:55:46;;;;;;;;;;;;;;;28.43;32.11;100321.86;108368;1254;72486;-76
2023/07/09 10:58:31;;;;;;;;;;;;;;;28.54;31.14;100323.96;108184;1254;61260;-76
2023/07/09 11:00:59;;;;;;;;;;;;;;;28.55;30.33;100315.17;108201;1254;61256;-76
2023/07/09 11:04:01;;;;;;;;;;;;;;;28.49;31.09;100310.36;108207;1255;66061;-77
2023/07/09 11:06:31;;;;;;;;;;;;;;;28.43;31.83;100317.32;108004;1257;64003;-75
2023/07/09 11:08:58;;;;;;;;;;;;;;;28.44;31.94;100311.98;108223;1253;71140;-75
2023/07/09 11:11:25;;;;;;;;;;;;;;;28.54;31.68;100315.02;108272;1253;61135;-75
2023/07/09 11:13:57;;;;;;;;;;;;;;;28.62;30.71;100316.46;108214;1254;61129;-76
2023/07/09 11:16:28;;;;;;;;;;;;;;;28.62;30.77;100315.13;108268;1255;66078;-76
2023/07/09 11:19:00;;;;;;;;;;;;;;;28.60;30.40;100313.01;108297;1254;62865;-76
2023/07/09 11:21:27;;;;;;;;;;;;;;;28.58;30.81;100313.85;108287;1252;64066;-76
2023/07/09 11:23:55;;;;;;;;;;;;;;;28.62;31.40;100310.73;108113;1259;61288;-76
2023/07/09 11:26:31;;;;;;;;;;;;;;;28.71;30.62;100316.42;108264;1254;61142;-76
2023/07/09 11:29:02;;;;;;;;;;;;;;;28.76;30.24;100306.88;108082;1253;65852;-76
2023/07/09 11:31:35;;;;;;;;;;;;;;;28.80;30.30;100313.17;108315;1254;64110;-76
2023/07/09 11:34:02;;;;;;;;;;;;;;;28.81;29.99;100300.61;104111;1254;5258631;-76
2023/07/09 11:36:30;;;;;;;;;;;;;;;28.79;29.63;100316.93;108041;1257;61348;-76
2023/07/09 11:39:17;;;;;;;;;;;;;;;28.77;29.84;100302.17;108102;1254;61243;-76
2023/07/09 11:41:46;;;;;;;;;;;;;;;28.79;29.95;100307.04;108068;1260;64524;-76